Time;durP1;ratioP1;P1;durP2;ratioP2;P2;SDS_P1;SDS_P2;PMS_P1;PMS_P2;Temp;Humidity;BMP_temperature;BMP_pressure;BME280_temperature;BME280_humidity;BME280_pressure;Samples;Min_cycle;Max_cycle;Signal;HPM_P1;HPM_P2
2020/12/24 00:02:07;;;;;;;1.85;0.50;;;14.00;74.30;;;;;;2349285;53;20914;-76
2020/12/24 00:04:34;;;;;;;2.53;0.60;;;14.00;74.40;;;;;;2599198;52;20995;-75
2020/12/24 00:07:01;;;;;;;2.30;0.62;;;14.00;74.20;;;;;;2364566;53;20953;-74
2020/12/24 00:09:28;;;;;;;2.40;0.68;;;13.90;74.10;;;;;;2622973;52;21090;-75
2020/12/24 00:11:55;;;;;;;1.30;0.57;;;13.90;73.90;;;;;;2556547;53;21288;-74
2020/12/24 00:14:22;;;;;;;1.17;0.50;;;13.90;73.70;;;;;;2327767;54;21770;-74
2020/12/24 00:16:49;;;;;;;2.53;0.50;;;13.90;73.30;;;;;;2564771;53;20961;-75
2020/12/24 00:19:16;;;;;;;0.98;0.50;;;13.80;73.00;;;;;;2317245;54;21096;-75
2020/12/24 00:21:43;;;;;;;1.73;0.50;;;13.80;72.70;;;;;;2558390;53;21023;-74
2020/12/24 00:24:12;;;;;;;1.27;0.40;;;13.80;72.80;;;;;;2559201;53;20964;-75
2020/12/24 00:26:38;;;;;;;1.05;0.40;;;13.70;72.60;;;;;;2341892;54;20964;-74
2020/12/24 00:29:10;;;;;;;0.82;0.30;;;13.70;72.60;;;;;;2555212;53;21054;-75
2020/12/24 00:31:40;;;;;;;1.50;0.40;;;13.70;72.50;;;;;;2328757;54;21015;-74
2020/12/24 00:34:06;;;;;;;1.05;0.35;;;13.70;71.90;;;;;;2333929;53;20916;-74
2020/12/24 00:36:33;;;;;;;0.50;0.20;;;13.60;71.50;;;;;;2324260;53;21067;-74
2020/12/24 00:39:01;;;;;;;0.37;0.25;;;13.60;70.90;;;;;;2342775;53;20964;-75
2020/12/24 00:41:28;;;;;;;0.65;0.25;;;13.50;70.60;;;;;;2586385;53;21787;-75
2020/12/24 00:43:58;;;;;;;0.82;0.30;;;13.50;70.70;;;;;;2342031;53;21027;-73
2020/12/24 00:46:24;;;;;;;0.43;0.20;;;13.50;70.20;;;;;;2600971;52;20945;-74
2020/12/24 00:48:51;;;;;;;0.47;0.10;;;13.40;70.00;;;;;;2609394;52;21365;-74
2020/12/24 00:51:17;;;;;;;0.35;0.20;;;13.30;69.70;;;;;;2598210;52;21046;-74
2020/12/24 00:53:44;;;;;;;0.77;0.20;;;13.30;69.90;;;;;;2607752;52;20955;-73
2020/12/24 00:56:11;;;;;;;0.17;0.10;;;13.20;70.00;;;;;;2609604;52;21246;-75
2020/12/24 00:58:38;;;;;;;1.00;0.22;;;13.10;70.00;;;;;;2601149;52;20971;-75
2020/12/24 01:01:05;;;;;;;0.20;0.20;;;13.10;70.10;;;;;;2364247;53;21098;-74
2020/12/24 01:03:32;;;;;;;8.15;2.67;;;13.10;70.10;;;;;;2333712;54;21022;-73
2020/12/24 01:06:01;;;;;;;6.03;2.50;;;13.00;70.30;;;;;;2371237;53;20966;-72
2020/12/24 01:08:28;;;;;;;3.67;1.20;;;13.00;70.30;;;;;;2610557;52;21027;-75
2020/12/24 01:10:54;;;;;;;2.47;0.77;;;13.00;70.70;;;;;;2340722;54;21263;-74
2020/12/24 01:13:20;;;;;;;1.08;0.37;;;12.90;70.60;;;;;;2606721;52;20979;-75
2020/12/24 01:15:47;;;;;;;2.00;0.70;;;12.90;70.70;;;;;;2603217;52;21704;-74
2020/12/24 01:18:14;;;;;;;1.02;0.40;;;12.90;71.00;;;;;;2575121;53;20919;-73
2020/12/24 01:20:40;;;;;;;2.50;0.47;;;12.80;71.10;;;;;;2344110;53;21061;-74
2020/12/24 01:23:07;;;;;;;2.75;0.55;;;12.80;71.30;;;;;;2623860;52;20947;-74
2020/12/24 01:25:34;;;;;;;3.92;0.93;;;12.80;71.40;;;;;;2372100;53;21844;-75
2020/12/24 01:28:01;;;;;;;3.62;1.17;;;12.70;71.40;;;;;;2370993;53;21838;-75
2020/12/24 01:30:29;;;;;;;2.08;0.70;;;12.70;71.60;;;;;;2371233;53;21076;-74
2020/12/24 01:32:55;;;;;;;1.85;0.57;;;12.60;71.70;;;;;;2371539;53;20929;-75
2020/12/24 01:35:21;;;;;;;1.45;0.45;;;12.60;72.10;;;;;;2371315;53;21029;-75
2020/12/24 01:37:48;;;;;;;3.35;1.30;;;12.60;72.40;;;;;;2605781;52;21035;-74
2020/12/24 01:40:14;;;;;;;2.55;0.95;;;12.60;72.90;;;;;;2584506;52;21038;-75
2020/12/24 01:42:41;;;;;;;2.05;0.70;;;12.60;72.90;;;;;;2371013;53;20949;-75
2020/12/24 01:45:08;;;;;;;2.37;0.75;;;12.60;72.90;;;;;;2370638;53;21029;-74
2020/12/24 01:47:37;;;;;;;5.87;1.33;;;12.60;72.90;;;;;;2370643;53;21347;-75
2020/12/24 01:50:04;;;;;;;2.08;0.80;;;12.60;72.60;;;;;;2623554;52;20997;-74
2020/12/24 01:52:37;;;;;;;2.12;0.70;;;12.50;72.40;;;;;;2611421;52;21047;-74
2020/12/24 01:55:08;;;;;;;3.92;1.00;;;12.50;72.10;;;;;;2574808;53;21310;-76
2020/12/24 01:57:34;;;;;;;2.33;0.70;;;12.50;71.90;;;;;;2600005;52;20993;-75
2020/12/24 02:00:06;;;;;;;2.97;0.88;;;12.50;71.80;;;;;;2371135;53;20922;-75
2020/12/24 02:02:32;;;;;;;2.42;0.60;;;12.50;71.50;;;;;;2345296;53;20940;-76
2020/12/24 02:04:59;;;;;;;1.48;0.50;;;12.40;71.40;;;;;;2612645;52;20982;-75
2020/12/24 02:07:26;;;;;;;1.87;0.55;;;12.40;71.20;;;;;;2623357;52;21004;-74
2020/12/24 02:09:52;;;;;;;1.37;0.50;;;12.40;70.90;;;;;;2352886;53;20989;-75
2020/12/24 02:12:19;;;;;;;1.70;0.40;;;12.30;70.60;;;;;;2591315;52;21052;-73
2020/12/24 02:14:46;;;;;;;1.30;0.40;;;12.30;70.60;;;;;;2601668;52;21005;-73
2020/12/24 02:17:12;;;;;;;1.23;0.40;;;12.30;70.60;;;;;;2370692;53;20953;-75
2020/12/24 02:19:41;;;;;;;1.60;0.45;;;12.20;70.50;;;;;;2371027;53;20902;-74
2020/12/24 02:22:08;;;;;;;1.65;0.30;;;12.20;70.30;;;;;;2371114;53;20947;-75
2020/12/24 02:24:36;;;;;;;2.10;0.43;;;12.20;70.50;;;;;;2334043;53;20945;-74
2020/12/24 02:27:03;;;;;;;2.28;0.60;;;12.20;70.10;;;;;;2356615;53;20993;-73
2020/12/24 02:29:30;;;;;;;0.73;0.30;;;12.20;70.30;;;;;;2601713;52;20961;-73
2020/12/24 02:31:57;;;;;;;0.90;0.35;;;12.10;70.50;;;;;;2573858;52;21525;-73
2020/12/24 02:34:24;;;;;;;2.62;0.52;;;12.10;70.30;;;;;;2596469;52;21989;-74
2020/12/24 02:36:51;;;;;;;3.10;0.60;;;12.10;70.20;;;;;;2356892;53;21014;-73
2020/12/24 02:39:19;;;;;;;2.17;0.47;;;12.10;70.00;;;;;;2609655;52;20934;-75
2020/12/24 02:41:45;;;;;;;0.93;0.30;;;12.10;70.10;;;;;;2604136;52;21774;-75
2020/12/24 02:44:16;;;;;;;1.55;0.50;;;12.10;70.20;;;;;;2596480;52;20965;-74
2020/12/24 02:46:43;;;;;;;1.25;0.40;;;12.10;70.00;;;;;;2573818;52;20964;-74
2020/12/24 02:49:09;;;;;;;0.82;0.32;;;12.10;69.60;;;;;;2343902;53;20997;-74
2020/12/24 02:51:36;;;;;;;1.52;0.55;;;12.10;69.90;;;;;;2354347;53;20964;-73
2020/12/24 02:54:06;;;;;;;1.30;0.50;;;12.10;70.20;;;;;;2570122;52;20896;-75
2020/12/24 02:56:32;;;;;;;1.67;0.40;;;12.00;69.90;;;;;;2623111;52;20933;-74
2020/12/24 02:58:59;;;;;;;1.33;0.40;;;12.00;69.50;;;;;;2371170;53;20957;-74
2020/12/24 03:01:25;;;;;;;1.85;0.47;;;12.00;69.90;;;;;;2617115;52;20986;-74
2020/12/24 03:03:53;;;;;;;2.45;0.60;;;12.00;70.10;;;;;;2580143;53;20910;-75
2020/12/24 03:06:20;;;;;;;0.98;0.40;;;12.00;70.00;;;;;;2332370;54;21428;-74
2020/12/24 03:08:48;;;;;;;2.10;0.57;;;12.00;70.00;;;;;;2363994;53;21006;-74
2020/12/24 03:11:14;;;;;;;1.50;0.50;;;12.00;69.90;;;;;;2623485;52;20984;-74
2020/12/24 03:13:42;;;;;;;1.92;0.55;;;12.00;69.70;;;;;;2598304;52;20987;-73
2020/12/24 03:16:08;;;;;;;2.50;0.40;;;12.00;69.60;;;;;;2357744;53;21806;-74
2020/12/24 03:18:36;;;;;;;1.95;0.30;;;12.00;69.90;;;;;;2361525;53;21109;-75
2020/12/24 03:21:03;;;;;;;3.25;0.57;;;12.00;69.80;;;;;;2347469;54;21029;-74
2020/12/24 03:23:29;;;;;;;1.35;0.60;;;12.00;70.10;;;;;;2603679;52;21513;-75
2020/12/24 03:25:56;;;;;;;3.90;0.60;;;12.00;70.00;;;;;;2622565;52;20898;-74
2020/12/24 03:28:25;;;;;;;2.40;0.50;;;12.00;70.00;;;;;;2622993;52;20961;-74
2020/12/24 03:30:51;;;;;;;2.92;0.52;;;12.00;69.80;;;;;;2623910;52;20918;-73
2020/12/24 03:33:19;;;;;;;2.22;0.52;;;12.00;69.40;;;;;;2623945;52;20966;-74
2020/12/24 03:35:45;;;;;;;1.65;0.52;;;11.90;69.30;;;;;;2623779;52;20938;-74
2020/12/24 03:38:30;;;;;;;1.05;0.35;;;11.90;69.50;;;;;;2613057;52;20967;-74
2020/12/24 03:40:57;;;;;;;1.67;0.47;;;11.90;69.40;;;;;;2340795;54;20971;-74
2020/12/24 03:43:24;;;;;;;1.85;0.50;;;11.90;69.80;;;;;;2623323;52;20914;-73
2020/12/24 03:45:52;;;;;;;1.87;0.50;;;11.90;69.60;;;;;;2582568;52;21562;-73
2020/12/24 03:48:19;;;;;;;5.00;0.55;;;11.90;69.20;;;;;;2343095;54;20987;-75
2020/12/24 03:50:46;;;;;;;3.58;0.70;;;11.90;69.40;;;;;;2621304;52;21866;-73
2020/12/24 03:53:13;;;;;;;3.00;0.45;;;11.90;68.90;;;;;;2623995;52;20926;-74
2020/12/24 03:55:40;;;;;;;3.22;0.60;;;11.90;69.30;;;;;;2623439;52;20906;-73
2020/12/24 03:58:06;;;;;;;1.02;0.30;;;11.90;69.20;;;;;;2362857;53;21003;-73
2020/12/24 04:00:33;;;;;;;3.95;0.57;;;12.00;69.30;;;;;;2335122;53;21039;-74
2020/12/24 04:03:00;;;;;;;2.08;0.60;;;11.90;68.70;;;;;;2608982;52;20962;-73
2020/12/24 04:05:27;;;;;;;1.40;0.40;;;11.90;68.20;;;;;;2370216;53;21049;-74
2020/12/24 04:07:54;;;;;;;4.43;0.60;;;11.90;68.20;;;;;;2594422;52;21740;-73
2020/12/24 04:10:20;;;;;;;2.28;0.40;;;12.00;68.40;;;;;;2621804;52;20941;-74
2020/12/24 04:12:49;;;;;;;3.12;0.40;;;11.90;67.80;;;;;;2366998;53;20983;-73
2020/12/24 04:15:16;;;;;;;1.83;0.60;;;11.90;67.90;;;;;;2606069;52;20978;-73
2020/12/24 04:17:43;;;;;;;2.92;0.50;;;11.90;67.80;;;;;;2367842;53;20979;-74
2020/12/24 04:20:10;;;;;;;1.52;0.50;;;11.90;67.90;;;;;;2577149;52;20999;-74
2020/12/24 04:22:39;;;;;;;2.75;0.60;;;11.90;67.90;;;;;;2623640;52;20999;-73
2020/12/24 04:25:05;;;;;;;5.40;0.70;;;11.90;67.30;;;;;;2352890;53;20939;-73
2020/12/24 04:27:32;;;;;;;2.10;0.50;;;11.90;67.60;;;;;;2623303;52;21395;-73
2020/12/24 04:29:59;;;;;;;1.27;0.40;;;11.80;67.10;;;;;;2622568;52;21506;-73
2020/12/24 04:32:26;;;;;;;2.28;0.50;;;11.80;67.40;;;;;;2371554;53;20981;-73
2020/12/24 04:34:52;;;;;;;1.08;0.50;;;11.80;67.50;;;;;;2599029;52;20954;-73
2020/12/24 04:37:19;;;;;;;3.37;1.00;;;11.80;67.30;;;;;;2623190;52;20942;-74
2020/12/24 04:39:45;;;;;;;3.28;0.60;;;11.80;66.80;;;;;;2354676;53;21431;-73
2020/12/24 04:42:12;;;;;;;2.50;0.75;;;11.80;67.20;;;;;;2365893;53;21048;-74
2020/12/24 04:44:40;;;;;;;1.42;0.40;;;11.80;67.20;;;;;;2332647;53;20977;-73
2020/12/24 04:47:07;;;;;;;4.40;0.50;;;11.70;67.30;;;;;;2621978;52;20930;-73
2020/12/24 04:49:33;;;;;;;3.83;0.68;;;11.70;67.20;;;;;;2567439;53;21057;-73
2020/12/24 04:52:00;;;;;;;4.28;0.50;;;11.70;67.30;;;;;;2585523;52;20921;-73
2020/12/24 04:54:27;;;;;;;8.05;0.75;;;11.70;67.20;;;;;;2605330;52;20958;-73
2020/12/24 04:56:54;;;;;;;6.10;0.75;;;11.70;66.80;;;;;;2350771;53;20955;-73
2020/12/24 04:59:21;;;;;;;2.92;0.65;;;11.70;66.70;;;;;;2623645;52;20998;-73
2020/12/24 05:01:51;;;;;;;3.03;0.65;;;11.70;67.00;;;;;;2371571;53;21010;-73
2020/12/24 05:04:20;;;;;;;5.62;0.70;;;11.70;67.00;;;;;;2594561;52;21393;-73
2020/12/24 05:06:46;;;;;;;3.08;0.57;;;11.70;66.80;;;;;;2623320;52;21457;-73
2020/12/24 05:09:14;;;;;;;4.43;0.70;;;11.70;67.30;;;;;;2573173;52;20984;-73
2020/12/24 05:11:44;;;;;;;4.20;0.70;;;11.80;67.00;;;;;;2353760;53;21481;-73
2020/12/24 05:14:18;;;;;;;1.62;0.40;;;11.90;66.90;;;;;;2355810;53;20968;-73
2020/12/24 05:17:05;;;;;;;2.72;0.55;;;11.80;67.00;;;;;;2355141;53;20959;-72
2020/12/24 05:19:49;;;;;;;5.00;0.52;;;11.80;66.50;;;;;;2332878;54;20931;-73
2020/12/24 05:22:20;;;;;;;2.87;0.75;;;11.80;67.20;;;;;;2623418;52;21025;-72
2020/12/24 05:24:46;;;;;;;3.83;0.95;;;11.80;66.90;;;;;;2371741;53;21025;-73
2020/12/24 05:27:19;;;;;;;4.53;0.93;;;11.80;66.50;;;;;;2617756;52;21020;-72
2020/12/24 05:29:47;;;;;;;3.15;0.80;;;11.80;66.60;;;;;;2604421;52;21010;-72
2020/12/24 05:32:15;;;;;;;5.10;1.17;;;11.80;66.90;;;;;;2624082;52;22049;-72
2020/12/24 05:34:41;;;;;;;3.80;0.85;;;11.80;67.10;;;;;;2371588;53;21187;-72
2020/12/24 05:37:12;;;;;;;3.10;0.57;;;11.80;67.00;;;;;;2589400;52;20940;-73
2020/12/24 05:39:39;;;;;;;3.72;0.80;;;11.90;65.90;;;;;;2608528;52;20982;-73
2020/12/24 05:42:06;;;;;;;4.43;0.80;;;11.90;66.10;;;;;;2371893;53;20922;-73
2020/12/24 05:44:33;;;;;;;2.90;0.70;;;11.90;65.80;;;;;;2372313;53;21005;-72
2020/12/24 05:46:59;;;;;;;2.67;0.60;;;11.90;65.90;;;;;;2589892;52;21009;-73
2020/12/24 05:49:26;;;;;;;3.80;0.80;;;11.90;65.40;;;;;;2601465;52;20945;-73
2020/12/24 05:52:01;;;;;;;3.30;0.70;;;12.00;65.60;;;;;;2624362;52;21037;-74
2020/12/24 05:54:29;;;;;;;3.50;0.65;;;11.90;65.70;;;;;;2370643;53;21042;-72
2020/12/24 05:56:58;;;;;;;2.75;0.60;;;12.00;65.40;;;;;;2622767;52;21038;-73
2020/12/24 05:59:25;;;;;;;8.20;1.12;;;12.00;65.40;;;;;;2357714;53;21089;-73
2020/12/24 06:02:17;;;;;;;6.55;0.80;;;12.00;65.10;;;;;;2571185;53;21448;-72
2020/12/24 06:04:52;;;;;;;3.20;0.50;;;12.00;64.10;;;;;;2341524;54;21566;-72
2020/12/24 06:07:39;;;;;;;3.85;0.60;;;12.00;64.60;;;;;;2596702;52;21037;-72
2020/12/24 06:10:07;;;;;;;3.87;0.90;;;12.00;64.40;;;;;;2607994;52;21033;-73
2020/12/24 06:12:34;;;;;;;6.12;1.15;;;12.10;65.10;;;;;;2355605;53;20994;-72
2020/12/24 06:15:01;;;;;;;5.12;0.73;;;12.10;65.20;;;;;;2347173;53;20922;-72
2020/12/24 06:17:29;;;;;;;5.10;0.73;;;12.00;64.40;;;;;;2601046;52;20967;-71
2020/12/24 06:19:56;;;;;;;3.15;0.75;;;12.10;64.20;;;;;;2350151;53;20965;-73
2020/12/24 06:22:25;;;;;;;6.07;0.93;;;11.90;63.20;;;;;;2349773;53;20898;-72
2020/12/24 06:24:53;;;;;;;3.97;0.82;;;12.10;61.90;;;;;;2370817;53;20969;-72
2020/12/24 06:27:35;;;;;;;4.47;0.98;;;12.10;62.90;;;;;;2586773;53;21748;-73
2020/12/24 06:30:04;;;;;;;6.77;1.20;;;12.00;62.40;;;;;;2352054;53;20948;-74
2020/12/24 06:32:37;;;;;;;4.75;1.08;;;12.10;62.90;;;;;;2345917;54;20967;-72
2020/12/24 06:35:04;;;;;;;4.37;1.08;;;12.10;61.90;;;;;;2612792;52;21395;-73
2020/12/24 06:37:42;;;;;;;4.55;0.90;;;12.10;61.30;;;;;;2370322;53;20954;-72
2020/12/24 06:40:10;;;;;;;6.35;1.00;;;12.10;61.30;;;;;;2371450;53;21054;-72
2020/12/24 06:42:43;;;;;;;4.68;0.90;;;12.00;62.00;;;;;;2596556;52;20920;-72
2020/12/24 06:45:34;;;;;;;3.28;0.82;;;12.10;62.40;;;;;;2352279;53;21512;-72
2020/12/24 06:48:24;;;;;;;8.73;1.00;;;12.10;62.00;;;;;;2612688;52;21051;-72
2020/12/24 06:51:03;;;;;;;8.55;1.40;;;12.10;61.20;;;;;;2584063;52;21020;-72
2020/12/24 06:53:37;;;;;;;4.05;0.70;;;12.10;60.80;;;;;;2603515;52;21013;-73
2020/12/24 06:56:20;;;;;;;5.85;1.10;;;12.00;60.90;;;;;;2366874;53;21026;-72
2020/12/24 06:59:01;;;;;;;4.12;0.88;;;12.10;60.90;;;;;;2607777;52;21026;-73
2020/12/24 07:01:31;;;;;;;4.70;1.02;;;12.10;61.30;;;;;;2609430;52;20959;-72
2020/12/24 07:04:03;;;;;;;8.10;1.62;;;12.10;61.80;;;;;;2351178;54;20987;-72
2020/12/24 07:10:13;;;;;;;7.28;0.80;;;12.10;61.40;;;;;;2360450;53;20926;-72
2020/12/24 07:12:39;;;;;;;6.43;1.02;;;12.10;60.40;;;;;;2613727;52;20995;-72
2020/12/24 07:15:21;;;;;;;3.33;0.82;;;12.10;61.10;;;;;;2605534;52;20957;-72
2020/12/24 07:17:50;;;;;;;5.03;0.82;;;12.10;61.20;;;;;;2371755;53;21618;-73
2020/12/24 07:20:17;;;;;;;6.40;1.08;;;12.00;61.60;;;;;;2359660;53;20998;-72
2020/12/24 07:22:53;;;;;;;6.72;1.12;;;12.00;61.90;;;;;;2615972;52;20976;-73
2020/12/24 07:25:19;;;;;;;4.05;0.82;;;11.90;61.40;;;;;;2350429;54;21008;-72
2020/12/24 07:27:50;;;;;;;5.37;1.00;;;12.00;62.00;;;;;;2622885;52;21799;-73
2020/12/24 07:30:19;;;;;;;5.18;1.00;;;11.80;61.90;;;;;;2595469;52;21003;-72
2020/12/24 07:32:51;;;;;;;4.00;0.85;;;11.80;61.90;;;;;;2343707;54;21037;-72
2020/12/24 07:35:17;;;;;;;5.35;0.88;;;11.70;62.10;;;;;;2363386;53;20950;-73
2020/12/24 07:37:44;;;;;;;7.82;1.10;;;11.60;62.40;;;;;;2620626;52;21009;-72
2020/12/24 07:40:11;;;;;;;4.80;0.93;;;11.60;62.90;;;;;;2351031;53;20997;-73
2020/12/24 07:42:40;;;;;;;3.72;1.02;;;11.50;62.30;;;;;;2356925;53;21824;-73
2020/12/24 07:45:07;;;;;;;7.53;1.40;;;11.40;62.60;;;;;;2342047;53;21015;-73
2020/12/24 07:47:35;;;;;;;6.95;1.60;;;11.40;62.90;;;;;;2596977;52;20979;-72
2020/12/24 07:50:02;;;;;;;4.53;0.90;;;11.40;62.20;;;;;;2601406;52;21483;-72
2020/12/24 07:52:30;;;;;;;8.13;1.00;;;11.30;62.20;;;;;;2594249;52;21036;-73
2020/12/24 07:55:08;;;;;;;3.87;0.80;;;11.30;62.90;;;;;;2370685;53;20950;-73
2020/12/24 07:57:34;;;;;;;6.50;1.55;;;11.30;62.30;;;;;;2614832;52;21866;-73
2020/12/24 08:00:01;;;;;;;6.90;1.27;;;11.30;62.50;;;;;;2353575;53;20930;-73
2020/12/24 08:02:28;;;;;;;3.95;0.95;;;11.30;62.00;;;;;;2623665;52;20934;-72
2020/12/24 08:04:55;;;;;;;7.87;1.15;;;11.30;62.30;;;;;;2353335;53;23009;-74
2020/12/24 08:07:22;;;;;;;8.15;1.23;;;11.40;61.00;;;;;;2587240;52;21017;-73
2020/12/24 08:09:48;;;;;;;6.03;1.00;;;11.30;61.10;;;;;;2351662;53;20995;-72
2020/12/24 08:12:28;;;;;;;7.18;0.90;;;11.30;61.50;;;;;;2603273;52;21005;-72
2020/12/24 08:14:55;;;;;;;3.45;0.70;;;11.40;61.60;;;;;;2596368;52;21965;-71
2020/12/24 08:17:34;;;;;;;7.60;1.10;;;11.40;60.50;;;;;;2363033;53;21047;-71
2020/12/24 08:20:06;;;;;;;4.40;1.10;;;11.40;60.60;;;;;;2608456;52;20994;-73
2020/12/24 08:22:57;;;;;;;6.18;1.05;;;11.40;61.20;;;;;;2370579;53;20942;-72
2020/12/24 08:25:23;;;;;;;4.45;1.20;;;11.50;61.70;;;;;;2371307;53;21387;-71
2020/12/24 08:27:50;;;;;;;4.50;0.82;;;11.50;61.30;;;;;;2369708;53;21077;-72
2020/12/24 08:30:17;;;;;;;5.78;0.82;;;11.50;61.50;;;;;;2371764;53;21667;-72
2020/12/24 08:32:43;;;;;;;1.90;0.70;;;11.50;61.30;;;;;;2371419;53;21025;-72
2020/12/24 08:35:14;;;;;;;6.57;1.05;;;11.50;61.50;;;;;;2622942;52;20934;-73
2020/12/24 08:37:41;;;;;;;6.80;0.90;;;11.40;60.90;;;;;;2369461;53;20934;-71
2020/12/24 08:40:27;;;;;;;4.75;0.95;;;11.40;61.10;;;;;;2371733;53;20941;-72
2020/12/24 08:43:00;;;;;;;6.15;1.20;;;11.40;60.90;;;;;;2620688;52;21814;-73
2020/12/24 08:45:30;;;;;;;3.75;0.90;;;11.40;61.10;;;;;;2345773;53;21039;-72
2020/12/24 08:47:57;;;;;;;4.95;1.40;;;11.40;61.50;;;;;;2342191;53;21007;-71
2020/12/24 08:50:33;;;;;;;4.00;0.73;;;11.40;61.10;;;;;;2370579;53;20964;-71
2020/12/24 08:52:59;;;;;;;4.62;1.10;;;11.40;61.40;;;;;;2359569;53;21129;-73
2020/12/24 08:55:27;;;;;;;7.43;1.20;;;11.40;60.70;;;;;;2584399;52;20923;-73
2020/12/24 08:57:55;;;;;;;4.47;0.90;;;11.30;60.50;;;;;;2344056;53;20973;-72
2020/12/24 09:00:23;;;;;;;7.07;1.30;;;11.30;60.90;;;;;;2361895;53;20954;-72
2020/12/24 09:02:51;;;;;;;4.57;0.90;;;11.30;60.20;;;;;;2607619;52;20959;-73
2020/12/24 09:05:24;;;;;;;8.55;1.67;;;11.30;60.70;;;;;;2337612;53;20947;-73
2020/12/24 09:07:52;;;;;;;9.57;1.20;;;11.30;60.80;;;;;;2605883;52;20942;-74
2020/12/24 09:10:29;;;;;;;10.10;1.45;;;11.30;60.60;;;;;;2352653;53;21035;-73
2020/12/24 09:12:57;;;;;;;7.90;1.23;;;11.30;60.50;;;;;;2614450;52;20934;-73
2020/12/24 09:15:31;;;;;;;3.08;0.68;;;11.30;60.60;;;;;;2596406;52;20936;-72
2020/12/24 09:17:58;;;;;;;5.05;0.85;;;11.30;60.90;;;;;;2348794;53;20970;-73
2020/12/24 09:20:29;;;;;;;6.45;0.90;;;11.30;60.70;;;;;;2598520;52;20990;-74
2020/12/24 09:22:57;;;;;;;3.28;0.90;;;11.30;60.90;;;;;;2351496;53;20927;-73
2020/12/24 09:26:00;;;;;;;4.97;0.80;;;11.40;61.50;;;;;;2370319;53;21283;-73
2020/12/24 09:28:37;;;;;;;6.50;0.95;;;11.40;60.40;;;;;;2351425;53;20983;-74
2020/12/24 09:31:03;;;;;;;3.70;0.80;;;11.40;59.70;;;;;;2579291;53;20983;-73
2020/12/24 09:33:30;;;;;;;3.10;0.80;;;11.40;60.70;;;;;;2589756;52;20973;-72
2020/12/24 09:35:57;;;;;;;3.75;1.23;;;11.50;60.90;;;;;;2368211;53;21754;-72
2020/12/24 09:38:23;;;;;;;4.45;0.85;;;11.50;61.00;;;;;;2348665;53;20990;-73
2020/12/24 09:40:50;;;;;;;5.12;0.95;;;11.50;61.00;;;;;;2351638;53;21043;-72
2020/12/24 09:43:16;;;;;;;6.22;1.00;;;11.50;60.10;;;;;;2370001;53;21446;-72
2020/12/24 09:45:43;;;;;;;5.35;1.05;;;11.50;60.30;;;;;;2592892;52;21042;-73
2020/12/24 09:48:09;;;;;;;2.92;0.50;;;11.50;61.10;;;;;;2366821;53;21436;-73
2020/12/24 09:50:48;;;;;;;3.70;0.70;;;11.50;61.00;;;;;;2348195;53;21014;-72
2020/12/24 09:53:15;;;;;;;5.43;0.85;;;11.70;61.00;;;;;;2569876;52;20962;-73
2020/12/24 09:55:41;;;;;;;5.25;1.08;;;11.50;61.00;;;;;;2589077;52;20977;-73
2020/12/24 09:58:11;;;;;;;6.82;1.00;;;11.50;60.90;;;;;;2602440;52;20983;-73
2020/12/24 10:00:37;;;;;;;2.67;0.77;;;11.60;61.00;;;;;;2344107;54;21075;-72
2020/12/24 10:03:05;;;;;;;3.37;0.70;;;11.60;61.60;;;;;;2568015;52;20964;-73
2020/12/24 10:05:31;;;;;;;4.00;0.82;;;11.60;61.50;;;;;;2338803;53;20960;-73
2020/12/24 10:10:38;;;;;;;3.37;0.68;;;11.60;61.30;;;;;;2428042;54;22932;-72
2020/12/24 10:13:05;;;;;;;2.20;0.60;;;11.60;61.00;;;;;;2468443;55;21520;-72
2020/12/24 10:15:32;;;;;;;3.53;0.70;;;11.60;61.50;;;;;;2242018;56;20996;-72
2020/12/24 10:18:02;;;;;;;2.83;0.50;;;11.60;61.90;;;;;;2230367;56;21052;-73
2020/12/24 10:20:34;;;;;;;4.82;0.90;;;11.60;61.80;;;;;;2414991;56;21774;-73
2020/12/24 10:23:01;;;;;;;4.32;0.80;;;11.60;61.60;;;;;;2215564;55;20995;-74
2020/12/24 10:25:27;;;;;;;3.35;1.00;;;11.60;61.70;;;;;;2195800;56;21780;-73
2020/12/24 10:27:54;;;;;;;3.03;0.60;;;11.60;61.50;;;;;;2410409;56;20941;-74
2020/12/24 10:30:21;;;;;;;2.85;0.68;;;11.60;61.60;;;;;;2199885;56;21540;-73
2020/12/24 10:32:47;;;;;;;5.87;0.93;;;11.60;61.60;;;;;;2410416;56;20994;-74
2020/12/24 10:35:14;;;;;;;3.60;0.85;;;11.60;61.90;;;;;;2218998;56;20981;-73
2020/12/24 10:37:42;;;;;;;2.97;0.70;;;11.60;61.20;;;;;;2217529;56;21061;-73
2020/12/24 10:40:08;;;;;;;3.25;0.82;;;11.60;61.60;;;;;;2218381;56;20953;-73
2020/12/24 10:42:38;;;;;;;3.05;0.73;;;11.60;62.90;;;;;;2218561;56;20977;-72
2020/12/24 10:45:05;;;;;;;2.75;0.68;;;11.60;61.70;;;;;;2222706;56;21504;-72
2020/12/24 10:47:31;;;;;;;3.85;0.73;;;11.60;61.90;;;;;;2204175;56;21829;-74
2020/12/24 10:50:00;;;;;;;4.80;0.68;;;11.60;62.20;;;;;;2220293;56;21009;-73
2020/12/24 10:52:27;;;;;;;2.58;0.70;;;11.60;62.00;;;;;;2213059;56;21048;-74
2020/12/24 10:54:58;;;;;;;3.80;1.00;;;11.50;62.30;;;;;;2436974;56;20929;-74
2020/12/24 10:57:25;;;;;;;3.58;0.70;;;11.50;62.10;;;;;;2216447;56;21485;-72
2020/12/24 10:59:52;;;;;;;3.17;0.88;;;11.50;62.40;;;;;;2438293;56;21423;-74
2020/12/24 11:02:18;;;;;;;1.48;0.50;;;11.50;62.50;;;;;;2217948;56;21745;-73
2020/12/24 11:04:48;;;;;;;1.77;0.40;;;11.50;62.80;;;;;;2440078;56;21861;-74
2020/12/24 11:07:14;;;;;;;1.92;0.60;;;11.60;63.50;;;;;;2219788;56;20985;-73
2020/12/24 11:09:41;;;;;;;1.87;0.60;;;11.60;62.60;;;;;;2230740;55;21000;-72
2020/12/24 11:12:11;;;;;;;4.75;0.80;;;11.60;62.20;;;;;;2218839;56;21336;-74
2020/12/24 11:14:38;;;;;;;4.12;0.80;;;11.60;62.20;;;;;;2221799;56;21022;-74
2020/12/24 11:17:05;;;;;;;3.25;0.70;;;11.60;62.40;;;;;;2222472;56;21062;-75
2020/12/24 11:19:32;;;;;;;3.92;0.60;;;11.60;62.80;;;;;;2211737;56;21017;-73
2020/12/24 11:22:00;;;;;;;3.42;0.70;;;11.70;62.60;;;;;;2437331;56;21499;-73
2020/12/24 11:24:27;;;;;;;3.00;0.98;;;11.70;62.50;;;;;;2213049;57;20959;-74
2020/12/24 11:26:55;;;;;;;2.12;0.70;;;11.70;62.40;;;;;;2220974;56;20978;-73
2020/12/24 11:29:21;;;;;;;3.67;0.73;;;11.70;62.80;;;;;;2199716;57;21042;-73
2020/12/24 11:31:53;;;;;;;3.37;0.80;;;11.70;62.60;;;;;;2226138;56;21084;-73
2020/12/24 11:34:31;;;;;;;2.72;0.60;;;11.80;62.30;;;;;;2421449;56;21650;-73
2020/12/24 11:36:59;;;;;;;3.72;0.88;;;11.80;62.40;;;;;;2449221;55;21978;-72
2020/12/24 11:39:25;;;;;;;3.30;0.82;;;11.80;62.00;;;;;;2238092;56;21077;-73
2020/12/24 11:41:53;;;;;;;2.83;0.80;;;11.80;62.20;;;;;;2237753;56;20960;-72
2020/12/24 11:44:24;;;;;;;3.42;0.65;;;11.80;62.60;;;;;;2445625;55;25353;-73
2020/12/24 11:46:51;;;;;;;2.85;0.70;;;11.80;62.90;;;;;;2458071;55;21610;-73
2020/12/24 11:49:20;;;;;;;3.03;1.12;;;11.90;63.10;;;;;;2231692;56;20976;-73
2020/12/24 11:51:48;;;;;;;2.97;0.70;;;11.90;63.10;;;;;;2233125;56;20997;-73
2020/12/24 11:54:15;;;;;;;2.50;0.60;;;11.90;63.10;;;;;;2244444;56;20939;-72
2020/12/24 11:56:43;;;;;;;1.62;0.45;;;11.90;63.40;;;;;;2234185;56;21019;-73
2020/12/24 11:59:11;;;;;;;2.40;0.60;;;11.90;63.30;;;;;;2234410;56;21002;-73
2020/12/24 12:01:39;;;;;;;2.60;0.80;;;12.00;62.90;;;;;;2445877;55;21501;-73
2020/12/24 12:04:07;;;;;;;4.32;0.80;;;12.00;63.00;;;;;;2457241;55;21036;-73
2020/12/24 12:06:34;;;;;;;2.45;0.90;;;12.00;63.20;;;;;;2462086;55;20978;-72
2020/12/24 12:09:02;;;;;;;2.47;0.70;;;12.00;62.80;;;;;;2465887;55;21004;-73
2020/12/24 12:11:29;;;;;;;2.35;0.40;;;12.00;63.10;;;;;;2231011;57;20959;-72
2020/12/24 12:13:56;;;;;;;1.87;0.40;;;12.10;62.80;;;;;;2244759;56;21163;-73
2020/12/24 12:16:23;;;;;;;1.95;0.50;;;12.00;61.90;;;;;;2244711;56;20945;-73
2020/12/24 12:18:50;;;;;;;1.48;0.52;;;12.00;62.80;;;;;;2465906;56;20976;-73
2020/12/24 12:21:18;;;;;;;2.72;0.70;;;12.00;61.80;;;;;;2244174;56;20947;-73
2020/12/24 12:23:47;;;;;;;3.20;1.17;;;11.90;61.90;;;;;;2458712;55;20969;-72
2020/12/24 12:26:15;;;;;;;2.67;0.85;;;12.00;62.60;;;;;;2229586;56;21052;-73
2020/12/24 12:28:43;;;;;;;2.47;0.73;;;12.00;63.00;;;;;;2233948;56;20985;-73
2020/12/24 12:31:19;;;;;;;2.53;0.60;;;12.00;62.20;;;;;;2242433;56;21127;-73
2020/12/24 12:33:46;;;;;;;1.75;0.60;;;12.10;61.20;;;;;;2468725;55;21714;-73
2020/12/24 12:36:14;;;;;;;2.45;0.70;;;12.00;61.20;;;;;;2449933;55;20972;-72
2020/12/24 12:38:43;;;;;;;3.70;0.70;;;12.00;61.50;;;;;;2248341;56;21551;-72
2020/12/24 12:41:12;;;;;;;3.08;0.60;;;12.00;62.10;;;;;;2224316;56;20996;-72
2020/12/24 12:43:39;;;;;;;2.55;0.60;;;12.00;61.90;;;;;;2245610;56;20999;-73
2020/12/24 12:46:06;;;;;;;1.55;0.60;;;12.00;62.10;;;;;;2228703;56;21044;-73
2020/12/24 12:48:33;;;;;;;2.37;0.65;;;12.10;62.70;;;;;;2466029;55;20956;-74
2020/12/24 12:51:00;;;;;;;2.60;0.80;;;12.10;62.90;;;;;;2242135;56;21020;-73
2020/12/24 12:53:28;;;;;;;3.10;0.60;;;12.10;62.40;;;;;;2466271;55;21078;-72
2020/12/24 12:55:55;;;;;;;1.30;0.60;;;12.10;62.20;;;;;;2231517;56;21117;-74
2020/12/24 12:58:21;;;;;;;1.55;0.52;;;12.10;62.60;;;;;;2232132;56;21104;-72
2020/12/24 13:00:48;;;;;;;1.98;0.43;;;12.10;62.50;;;;;;2465006;55;21430;-73
2020/12/24 13:03:15;;;;;;;2.53;0.60;;;12.10;62.20;;;;;;2459249;55;21028;-72